createdAt,value
2023-04-16T00:01:35.752Z,97185.81
2023-04-16T00:04:03.111Z,97183.94
2023-04-16T00:06:30.419Z,97188.31
2023-04-16T00:08:57.293Z,97186.66
2023-04-16T00:11:24.133Z,97184.53
2023-04-16T00:13:51.041Z,97183.69
2023-04-16T00:16:17.905Z,97180.97
2023-04-16T00:18:44.730Z,97180.16
2023-04-16T00:21:11.685Z,97185.97
2023-04-16T00:23:38.499Z,97198.50
2023-04-16T00:26:05.295Z,97186.19
2023-04-16T00:28:32.167Z,97192.69
2023-04-16T00:30:59.087Z,97191.63
2023-04-16T00:33:26.104Z,97189.97
2023-04-16T00:35:52.942Z,97188.69
2023-04-16T00:38:19.740Z,97183.69
2023-04-16T00:40:46.584Z,97192.69
2023-04-16T00:43:21.884Z,97195.63
2023-04-16T00:45:48.802Z,97182.88
2023-04-16T00:48:15.578Z,97188.69
2023-04-16T00:50:42.622Z,97191.53
2023-04-16T00:53:09.421Z,97185.34
2023-04-16T00:55:36.326Z,97185.50
2023-04-16T00:58:03.842Z,97187.16
2023-04-16T01:00:30.669Z,97186.91
2023-04-16T01:02:57.742Z,97183.84
2023-04-16T01:05:24.726Z,97179.59
2023-04-16T01:07:52.128Z,97187.75
2023-04-16T01:10:19.049Z,97184.78
2023-04-16T01:12:45.828Z,97178.75
2023-04-16T01:15:12.756Z,97186.69
2023-04-16T01:17:39.524Z,97176.88
2023-04-16T01:20:06.794Z,97189.03
2023-04-16T01:22:33.577Z,97192.34
2023-04-16T01:25:00.615Z,97183.59
2023-04-16T01:27:27.317Z,97191.19
2023-04-16T01:29:54.154Z,97190.34
2023-04-16T01:32:21.006Z,97198.03
2023-04-16T01:34:47.728Z,97201.81
2023-04-16T01:37:14.573Z,97200.75
2023-04-16T01:39:41.353Z,97198.03
2023-04-16T01:42:08.139Z,97203.22
2023-04-16T01:44:34.932Z,97196.38
2023-04-16T01:47:01.810Z,97198.84
2023-04-16T01:49:29.046Z,97194.47
2023-04-16T01:51:55.767Z,97200.97
2023-04-16T01:54:22.543Z,97195.19
2023-04-16T01:56:49.284Z,97204.28
2023-04-16T01:59:16.023Z,97207.84
2023-04-16T02:01:42.838Z,97204.53
2023-04-16T02:04:10.099Z,97210.56
2023-04-16T02:06:36.960Z,97211.38
2023-04-16T02:09:03.825Z,97208.66
2023-04-16T02:11:30.644Z,97210.78
2023-04-16T02:13:57.516Z,97211.84
2023-04-16T02:16:24.354Z,97209.13
2023-04-16T02:18:51.072Z,97208.06
2023-04-16T02:21:17.936Z,97207.72
2023-04-16T02:23:44.706Z,97204.53
2023-04-16T02:26:11.504Z,97210.78
2023-04-16T02:28:38.375Z,97216.72
2023-04-16T02:31:05.409Z,97213.16
2023-04-16T02:33:32.169Z,97217.28
2023-04-16T02:35:59.161Z,97214.94
2023-04-16T02:38:25.961Z,97216.47
2023-04-16T02:40:52.678Z,97212.94
2023-04-16T02:43:19.495Z,97204.53
2023-04-16T02:45:46.315Z,97204.28
2023-04-16T02:48:13.103Z,97197.78
2023-04-16T02:50:39.989Z,97204.28
2023-04-16T02:53:06.819Z,97193.66
2023-04-16T02:55:33.641Z,97204.78
2023-04-16T02:58:00.471Z,97208.56
2023-04-16T03:00:27.259Z,97199.91
2023-04-16T03:02:54.140Z,97203.69
2023-04-16T03:05:21.062Z,97208.78
2023-04-16T03:07:47.978Z,97208.31
2023-04-16T03:10:14.741Z,97211.03
2023-04-16T03:12:41.508Z,97212.34
2023-04-16T03:15:08.740Z,97208.31
2023-04-16T03:17:35.559Z,97211.03
2023-04-16T03:20:02.392Z,97203.94
2023-04-16T03:22:29.132Z,97205.84
2023-04-16T03:24:55.940Z,97202.06
2023-04-16T03:27:22.766Z,97196.13
2023-04-16T03:29:49.614Z,97200.97
2023-04-16T03:32:16.366Z,97206.19
2023-04-16T03:34:43.180Z,97200.97
2023-04-16T03:37:09.895Z,97204.78
2023-04-16T03:39:36.745Z,97204.28
2023-04-16T03:42:03.712Z,97200.41
2023-04-16T03:44:30.455Z,97207.72
2023-04-16T03:46:57.291Z,97203.69
2023-04-16T03:49:24.186Z,97204.53
2023-04-16T03:51:51.100Z,97201.81
2023-04-16T03:54:18.410Z,97199.91
2023-04-16T03:56:45.971Z,97196.38
2023-04-16T03:59:12.719Z,97206.19
2023-04-16T04:01:39.568Z,97199.78
2023-04-16T04:04:06.481Z,97198.75
2023-04-16T04:06:33.332Z,97200.63
2023-04-16T04:09:00.113Z,97200.97
2023-04-16T04:11:26.832Z,97202.06
2023-04-16T04:13:53.582Z,97201.22
2023-04-16T04:16:20.338Z,97205.00
2023-04-16T04:18:47.246Z,97203.69
2023-04-16T04:21:13.990Z,97206.91
2023-04-16T04:23:40.802Z,97206.91
2023-04-16T04:26:07.784Z,97202.63
2023-04-16T04:28:34.779Z,97211.84
2023-04-16T04:31:01.677Z,97212.44
2023-04-16T04:33:28.788Z,97217.53
2023-04-16T04:35:55.551Z,97220.38
2023-04-16T04:38:22.557Z,97215.16
2023-04-16T04:40:49.336Z,97207.00
2023-04-16T04:43:16.114Z,97211.38
2023-04-16T04:45:42.953Z,97213.28
2023-04-16T04:48:09.762Z,97214.50
2023-04-16T04:50:36.771Z,97214.69
2023-04-16T04:53:03.539Z,97222.25
2023-04-16T04:55:30.260Z,97219.31
2023-04-16T04:57:57.088Z,97223.09
2023-04-16T05:00:23.914Z,97222.84
2023-04-16T05:02:50.807Z,97232.31
2023-04-16T05:05:17.794Z,97222.25
2023-04-16T05:07:44.639Z,97229.59
2023-04-16T05:10:14.390Z,97221.19
2023-04-16T05:12:41.217Z,97227.09
2023-04-16T05:15:08.627Z,97225.56
2023-04-16T05:17:35.318Z,97226.41
2023-04-16T05:20:02.110Z,97230.81
2023-04-16T05:22:29.245Z,97234.78
2023-04-16T05:24:56.010Z,97229.94
2023-04-16T05:27:23.134Z,97232.47
2023-04-16T05:29:49.975Z,97232.81
2023-04-16T05:32:16.798Z,97236.59
2023-04-16T05:34:43.656Z,97233.88
2023-04-16T05:37:10.434Z,97223.81
2023-04-16T05:39:37.161Z,97231.75
2023-04-16T05:42:04.035Z,97233.28
2023-04-16T05:44:30.763Z,97225.94
2023-04-16T05:46:57.467Z,97225.94
2023-04-16T05:49:24.159Z,97231.41
2023-04-16T05:51:53.298Z,97224.88
2023-04-16T05:54:20.047Z,97223.34
2023-04-16T05:56:47.429Z,97231.50
2023-04-16T05:59:14.219Z,97228.78
2023-04-16T06:01:41.189Z,97242.97
2023-04-16T06:04:08.002Z,97236.72
2023-04-16T06:06:34.791Z,97237.34
2023-04-16T06:09:01.609Z,97239.19
2023-04-16T06:11:29.971Z,97241.09
2023-04-16T06:13:56.640Z,97242.97
2023-04-16T06:16:23.414Z,97251.97
2023-04-16T06:18:50.174Z,97254.69
2023-04-16T06:21:17.004Z,97244.19
2023-04-16T06:23:43.750Z,97246.09
2023-04-16T06:26:11.518Z,97251.75
2023-04-16T06:28:38.256Z,97248.81
2023-04-16T06:31:05.057Z,97241.72
2023-04-16T06:33:31.769Z,97240.63
2023-04-16T06:35:58.448Z,97244.44
2023-04-16T06:38:25.121Z,97236.84
2023-04-16T06:40:51.829Z,97246.09
2023-04-16T06:43:18.598Z,97242.78
2023-04-16T06:45:45.356Z,97244.19
2023-04-16T06:48:12.095Z,97240.41
2023-04-16T06:50:38.821Z,97246.31
2023-04-16T06:53:05.586Z,97246.09
2023-04-16T06:55:32.361Z,97249.88
2023-04-16T06:57:59.116Z,97242.53
2023-04-16T07:00:25.939Z,97241.00
2023-04-16T07:02:52.792Z,97247.06
2023-04-16T07:05:19.644Z,97248.94
2023-04-16T07:07:46.365Z,97256.03
2023-04-16T07:10:13.128Z,97251.44
2023-04-16T07:12:39.899Z,97256.03
2023-04-16T07:15:07.569Z,97257.50
2023-04-16T07:17:34.357Z,97251.81
2023-04-16T07:20:01.214Z,97262.69
2023-04-16T07:22:27.953Z,97265.19
2023-04-16T07:24:54.659Z,97259.50
2023-04-16T07:27:21.347Z,97262.69
2023-04-16T07:29:48.084Z,97268.13
2023-04-16T07:32:15.633Z,97266.00
2023-04-16T07:34:42.597Z,97265.53
2023-04-16T07:37:09.357Z,97262.81
2023-04-16T07:39:36.088Z,97273.94
2023-04-16T07:42:02.867Z,97268.25
2023-04-16T07:44:29.850Z,97274.75
2023-04-16T07:46:56.649Z,97271.44
2023-04-16T07:49:23.502Z,97276.66
2023-04-16T07:51:50.280Z,97280.66
2023-04-16T07:54:17.043Z,97273.94
2023-04-16T07:56:43.782Z,97274.75
2023-04-16T07:59:21.907Z,97274.50
2023-04-16T08:01:50.162Z,97282.09
2023-04-16T08:04:17.014Z,97277.47
2023-04-16T08:06:43.900Z,97283.50
2023-04-16T08:09:10.867Z,97284.34
2023-04-16T08:11:37.788Z,97283.16
2023-04-16T08:14:04.550Z,97285.97
2023-04-16T08:16:31.304Z,97285.41
2023-04-16T08:18:58.095Z,97287.06
2023-04-16T08:21:24.903Z,97289.78
2023-04-16T08:23:51.565Z,97288.25
2023-04-16T08:26:18.392Z,97298.31
2023-04-16T08:28:45.130Z,97294.28
2023-04-16T08:31:11.966Z,97294.53
2023-04-16T08:33:38.965Z,97295.59
2023-04-16T08:36:05.998Z,97302.69
2023-04-16T08:38:32.674Z,97298.09
2023-04-16T08:41:01.737Z,97302.94
2023-04-16T08:43:29.341Z,97303.53
2023-04-16T08:45:56.112Z,97301.97
2023-04-16T08:48:22.917Z,97301.63
2023-04-16T08:50:52.220Z,97305.75
2023-04-16T08:53:19.375Z,97309.31
2023-04-16T08:55:49.611Z,97314.41
2023-04-16T08:58:19.891Z,97316.28
2023-04-16T09:00:47.531Z,97313.09
2023-04-16T09:03:14.354Z,97319.25
2023-04-16T09:05:42.030Z,97320.31
2023-04-16T09:08:09.011Z,97322.31
2023-04-16T09:10:35.792Z,97321.97
2023-04-16T09:13:02.485Z,97329.19
2023-04-16T09:15:29.259Z,97330.25
2023-04-16T09:17:55.991Z,97332.72
2023-04-16T09:20:22.803Z,97333.94
2023-04-16T09:22:49.629Z,97332.38
2023-04-16T09:25:16.357Z,97337.81
2023-04-16T09:27:43.177Z,97329.41
2023-04-16T09:30:26.141Z,97328.28
2023-04-16T09:32:53.720Z,97337.50
2023-04-16T09:35:20.621Z,97338.75
2023-04-16T09:37:57.426Z,97325.31
2023-04-16T09:40:25.070Z,97332.88
2023-04-16T09:42:52.296Z,97331.00
2023-04-16T09:45:19.083Z,97333.47
2023-04-16T09:47:46.000Z,97334.19
2023-04-16T09:50:18.199Z,97341.03
2023-04-16T09:52:48.050Z,97338.75
2023-04-16T09:55:14.746Z,97336.53
2023-04-16T09:57:41.424Z,97336.03
2023-04-16T10:00:09.233Z,97333.13
2023-04-16T10:02:36.334Z,97339.97
2023-04-16T10:05:03.504Z,97341.88
2023-04-16T10:07:34.051Z,97341.88
2023-04-16T10:10:00.855Z,97341.88
2023-04-16T10:12:27.535Z,97339.97
2023-04-16T10:14:54.294Z,97345.41
2023-04-16T10:17:21.381Z,97317.25
2023-04-16T10:19:48.111Z,97320.78
2023-04-16T10:22:14.917Z,97320.53
2023-04-16T10:24:41.647Z,97323.25
2023-04-16T10:27:08.356Z,97319.59
2023-04-16T10:29:35.032Z,97321.97
2023-04-16T10:32:01.845Z,97322.66
2023-04-16T10:34:28.525Z,97320.16
2023-04-16T10:36:55.276Z,97325.59
2023-04-16T10:39:27.301Z,97328.56
2023-04-16T10:42:13.134Z,97335.88
2023-04-16T10:44:45.307Z,97355.16
2023-04-16T10:47:13.144Z,97351.00
2023-04-16T10:49:40.268Z,97353.50
2023-04-16T10:52:11.328Z,97357.88
2023-04-16T10:54:38.103Z,97352.81
2023-04-16T10:57:09.874Z,97350.31
2023-04-16T10:59:37.509Z,97361.56
2023-04-16T11:02:09.035Z,97356.94
2023-04-16T11:04:37.203Z,97357.94
2023-04-16T11:07:06.621Z,97354.00
2023-04-16T11:09:45.637Z,97353.31
2023-04-16T11:12:22.483Z,97359.22
2023-04-16T11:15:11.432Z,97351.41
2023-04-16T11:17:39.791Z,97352.25
2023-04-16T11:20:17.723Z,97345.75
2023-04-16T11:22:51.234Z,97349.88
2023-04-16T11:25:21.827Z,97354.19
2023-04-16T11:27:49.127Z,97350.63
2023-04-16T11:30:15.939Z,97346.59
2023-04-16T11:32:43.732Z,97350.16
2023-04-16T11:35:14.975Z,97353.09
2023-04-16T11:37:41.953Z,97355.59
2023-04-16T11:40:09.153Z,97347.81
2023-04-16T11:42:36.805Z,97352.63
2023-04-16T11:45:03.982Z,97351.59
2023-04-16T11:47:31.165Z,97353.38
2023-04-16T11:49:58.384Z,97344.38
2023-04-16T11:52:32.110Z,97347.84
2023-04-16T11:54:59.201Z,97343.81
2023-04-16T11:57:29.431Z,97348.28
2023-04-16T12:00:01.742Z,97339.69
2023-04-16T12:02:40.070Z,97344.75
2023-04-16T12:05:26.029Z,97347.69
2023-04-16T12:07:52.752Z,97343.09
2023-04-16T12:10:19.558Z,97348.16
2023-04-16T12:12:46.254Z,97355.03
2023-04-16T12:15:13.028Z,97349.72
2023-04-16T12:17:39.816Z,97348.66
2023-04-16T12:20:10.702Z,97348.66
2023-04-16T12:22:38.546Z,97350.53
2023-04-16T12:25:06.619Z,97350.97
2023-04-16T12:27:52.215Z,97342.38
2023-04-16T12:30:21.594Z,97346.16
2023-04-16T12:32:49.459Z,97347.00
2023-04-16T12:35:32.389Z,97353.47
2023-04-16T12:37:59.470Z,97349.72
2023-04-16T12:40:26.406Z,97349.09
2023-04-16T12:42:53.206Z,97352.63
2023-04-16T12:45:20.014Z,97350.97
2023-04-16T12:47:47.225Z,97347.06
2023-04-16T12:50:14.050Z,97342.34
2023-04-16T12:52:40.761Z,97346.81
2023-04-16T12:55:07.792Z,97346.56
2023-04-16T12:57:34.519Z,97337.81
2023-04-16T13:00:01.274Z,97341.84
2023-04-16T13:02:28.166Z,97344.78
2023-04-16T13:04:54.947Z,97336.75
2023-04-16T13:07:21.736Z,97335.22
2023-04-16T13:09:48.429Z,97335.22
2023-04-16T13:12:15.109Z,97337.84
2023-04-16T13:14:42.805Z,97332.75
2023-04-16T13:17:11.329Z,97333.03
2023-04-16T13:19:38.031Z,97334.00
2023-04-16T13:22:04.800Z,97335.31
2023-04-16T13:24:31.594Z,97335.31
2023-04-16T13:26:58.370Z,97338.72
2023-04-16T13:29:25.122Z,97333.91
2023-04-16T13:34:18.553Z,97329.88
2023-04-16T13:36:45.307Z,97331.63
2023-04-16T13:39:12.351Z,97330.56
2023-04-16T13:41:39.372Z,97332.81
2023-04-16T13:44:06.623Z,97327.81
2023-04-16T13:46:33.806Z,97328.41
2023-04-16T13:49:00.750Z,97328.06
2023-04-16T13:51:27.763Z,97320.97
2023-04-16T13:53:54.990Z,97314.44
2023-04-16T13:56:22.219Z,97316.81
2023-04-16T13:58:48.934Z,97324.97
2023-04-16T14:01:16.077Z,97316.44
2023-04-16T14:03:47.023Z,97315.59
2023-04-16T14:06:14.109Z,97313.38
2023-04-16T14:08:41.185Z,97306.63
2023-04-16T14:11:08.303Z,97318.09
2023-04-16T14:16:05.699Z,97321.44
2023-04-16T14:18:32.588Z,97317.41
2023-04-16T14:20:59.435Z,97320.88
2023-04-16T14:23:29.665Z,97314.72
2023-04-16T14:25:56.877Z,97313.28
2023-04-16T14:28:23.786Z,97317.75
2023-04-16T14:30:51.022Z,97316.00
2023-04-16T14:33:17.785Z,97318.94
2023-04-16T14:35:49.913Z,97321.53
2023-04-16T14:38:16.780Z,97327.56
2023-04-16T14:40:44.068Z,97320.22
2023-04-16T14:43:11.021Z,97325.91
2023-04-16T14:45:37.806Z,97323.41
2023-04-16T14:48:08.191Z,97320.34
2023-04-16T14:50:35.377Z,97324.97
2023-04-16T14:53:02.471Z,97319.88
2023-04-16T14:55:29.890Z,97317.38
2023-04-16T14:57:56.726Z,97314.66
2023-04-16T15:00:26.861Z,97324.00
2023-04-16T15:02:54.729Z,97316.44
2023-04-16T15:05:21.892Z,97317.06
2023-04-16T15:07:48.765Z,97315.50
2023-04-16T15:10:15.851Z,97315.63
2023-04-16T15:12:42.494Z,97312.91
2023-04-16T15:15:09.911Z,97314.72
2023-04-16T15:17:37.251Z,97307.38
2023-04-16T15:20:04.664Z,97306.78
2023-04-16T15:22:31.685Z,97307.03
2023-04-16T15:24:58.684Z,97313.97
2023-04-16T15:27:25.582Z,97315.28
2023-04-16T15:29:52.360Z,97316.09
2023-04-16T15:32:19.330Z,97313.03
2023-04-16T15:34:46.158Z,97316.59
2023-04-16T15:37:13.487Z,97316.59
2023-04-16T15:39:40.419Z,97316.00
2023-04-16T15:42:08.715Z,97321.88
2023-04-16T15:44:35.706Z,97318.56
2023-04-16T15:47:04.519Z,97316.09
2023-04-16T15:49:31.275Z,97314.66
2023-04-16T15:51:58.951Z,97320.09
2023-04-16T15:54:27.207Z,97321.75
2023-04-16T15:56:53.998Z,97329.09
2023-04-16T15:59:20.882Z,97325.53
2023-04-16T16:01:47.835Z,97325.53
2023-04-16T16:04:14.637Z,97325.78
2023-04-16T16:06:41.839Z,97334.19
2023-04-16T16:09:08.992Z,97330.84
2023-04-16T16:11:36.658Z,97333.56
2023-04-16T16:14:03.617Z,97335.00
2023-04-16T16:16:30.582Z,97331.06
2023-04-16T16:18:57.344Z,97329.19
2023-04-16T16:21:24.335Z,97333.78
2023-04-16T16:23:51.106Z,97336.53
2023-04-16T16:26:18.225Z,97341.72
2023-04-16T16:28:45.075Z,97346.81
2023-04-16T16:31:11.910Z,97349.75
2023-04-16T16:33:40.291Z,97337.00
2023-04-16T16:36:10.482Z,97345.16
2023-04-16T16:38:37.486Z,97353.78
2023-04-16T16:41:04.509Z,97350.91
2023-04-16T16:43:32.306Z,97359.53
2023-04-16T16:45:59.023Z,97355.59
2023-04-16T16:48:25.775Z,97357.72
2023-04-16T16:50:52.584Z,97357.72
2023-04-16T16:53:19.439Z,97367.75
2023-04-16T16:55:46.169Z,97359.38
2023-04-16T16:58:12.973Z,97364.59
2023-04-16T17:00:39.836Z,97360.38
2023-04-16T17:03:06.851Z,97363.44
2023-04-16T17:05:33.654Z,97364.28
2023-04-16T17:08:00.548Z,97368.06
2023-04-16T17:10:27.323Z,97370.31
2023-04-16T17:12:54.133Z,97374.47
2023-04-16T17:15:21.865Z,97370.09
2023-04-16T17:17:48.902Z,97372.81
2023-04-16T17:20:19.072Z,97371.13
2023-04-16T17:22:45.795Z,97370.31
2023-04-16T17:25:12.838Z,97381.00
2023-04-16T17:27:39.637Z,97381.81
2023-04-16T17:30:07.478Z,97379.75
2023-04-16T17:32:34.523Z,97374.91
2023-04-16T17:35:02.157Z,97385.81
2023-04-16T17:37:29.221Z,97384.53
2023-04-16T17:39:56.457Z,97382.88
2023-04-16T17:42:23.953Z,97385.59
2023-04-16T17:44:50.657Z,97382.03
2023-04-16T17:47:17.387Z,97381.00
2023-04-16T17:49:44.146Z,97382.03
2023-04-16T17:52:10.916Z,97388.75
2023-04-16T17:54:37.730Z,97385.81
2023-04-16T17:57:04.425Z,97386.03
2023-04-16T17:59:31.237Z,97384.16
2023-04-16T18:01:58.182Z,97380.00
2023-04-16T18:04:25.302Z,97389.94
2023-04-16T18:06:52.249Z,97388.41
2023-04-16T18:09:18.965Z,97390.06
2023-04-16T18:11:45.677Z,97387.56
2023-04-16T18:14:12.588Z,97390.88
2023-04-16T18:16:39.354Z,97386.50
2023-04-16T18:19:06.182Z,97382.13
2023-04-16T18:21:33.003Z,97388.41
2023-04-16T18:23:59.761Z,97391.94
2023-04-16T18:26:29.627Z,97390.28
2023-04-16T18:28:56.877Z,97391.59
2023-04-16T18:31:23.858Z,97386.16
2023-04-16T18:33:57.591Z,97381.78
2023-04-16T18:36:25.447Z,97389.94
2023-04-16T18:39:00.228Z,97382.38
2023-04-16T18:41:28.954Z,97384.47
2023-04-16T18:43:55.938Z,97390.28
2023-04-16T18:46:22.775Z,97389.47
2023-04-16T18:48:49.674Z,97394.06
2023-04-16T18:51:16.804Z,97397.03
2023-04-16T18:53:44.394Z,97401.84
2023-04-16T18:56:11.347Z,97402.06
2023-04-16T18:58:38.134Z,97410.00
2023-04-16T19:01:04.908Z,97400.19
2023-04-16T19:03:31.798Z,97405.63
2023-04-16T19:05:58.563Z,97410.22
2023-04-16T19:08:25.328Z,97416.06
2023-04-16T19:10:52.035Z,97415.22
2023-04-16T19:13:18.685Z,97416.25
2023-04-16T19:15:45.481Z,97416.06
2023-04-16T19:18:12.196Z,97411.06
2023-04-16T19:20:38.915Z,97417.56
2023-04-16T19:23:05.778Z,97422.75
2023-04-16T19:25:32.680Z,97420.03
2023-04-16T19:27:59.561Z,97421.94
2023-04-16T19:30:26.388Z,97422.94
2023-04-16T19:32:55.136Z,97417.72
2023-04-16T19:35:22.508Z,97420.44
2023-04-16T19:37:49.241Z,97431.31
2023-04-16T19:40:16.010Z,97425.03
2023-04-16T19:42:42.777Z,97430.50
2023-04-16T19:45:09.692Z,97433.44
2023-04-16T19:47:36.654Z,97428.59
2023-04-16T19:50:03.525Z,97429.44
2023-04-16T19:52:30.345Z,97425.03
2023-04-16T19:54:57.111Z,97435.09
2023-04-16T19:57:23.929Z,97421.69
2023-04-16T19:59:50.635Z,97415.00
2023-04-16T20:02:17.321Z,97416.06
2023-04-16T20:04:44.145Z,97415.81
2023-04-16T20:07:10.892Z,97423.75
2023-04-16T20:09:37.689Z,97419.38
2023-04-16T20:12:04.570Z,97409.56
2023-04-16T20:14:31.271Z,97407.91
2023-04-16T20:16:58.220Z,97406.38
2023-04-16T20:19:25.021Z,97400.56
2023-04-16T20:21:51.970Z,97406.00
2023-04-16T20:24:18.774Z,97407.44
2023-04-16T20:26:45.497Z,97402.22
2023-04-16T20:29:12.475Z,97402.66
2023-04-16T20:31:39.256Z,97406.59
2023-04-16T20:34:06.032Z,97399.03
2023-04-16T20:36:32.863Z,97407.44
2023-04-16T20:38:59.599Z,97405.78
2023-04-16T20:41:26.358Z,97395.97
2023-04-16T20:43:53.133Z,97409.91
2023-04-16T20:46:20.833Z,97401.75
2023-04-16T20:48:49.278Z,97400.94
2023-04-16T20:51:16.121Z,97396.91
2023-04-16T20:53:42.886Z,97394.44
2023-04-16T20:56:09.727Z,97393.84
2023-04-16T20:58:36.525Z,97393.59
2023-04-16T21:01:03.248Z,97393.84
2023-04-16T21:03:30.131Z,97382.50
2023-04-16T21:05:57.100Z,97378.09
2023-04-16T21:08:23.970Z,97376.69
2023-04-16T21:10:50.783Z,97373.50
2023-04-16T21:13:17.501Z,97371.84
2023-04-16T21:15:44.762Z,97371.84
2023-04-16T21:18:11.541Z,97365.56
2023-04-16T21:20:38.903Z,97364.97
2023-04-16T21:23:05.768Z,97370.88
2023-04-16T21:25:32.636Z,97365.81
2023-04-16T21:27:59.332Z,97362.50
2023-04-16T21:30:26.135Z,97366.88
2023-04-16T21:32:52.992Z,97368.53
2023-04-16T21:35:19.941Z,97368.53
2023-04-16T21:37:46.805Z,97370.41
2023-04-16T21:40:13.663Z,97373.38
2023-04-16T21:42:40.365Z,97372.31
2023-04-16T21:45:08.670Z,97362.72
2023-04-16T21:47:35.632Z,97369.81
2023-04-16T21:50:02.540Z,97360.44
2023-04-16T21:52:29.355Z,97366.28
2023-04-16T21:54:56.106Z,97364.38
2023-04-16T21:57:22.853Z,97363.31
2023-04-16T21:59:49.654Z,97363.56
2023-04-16T22:02:16.525Z,97358.94
2023-04-16T22:04:43.397Z,97363.09
2023-04-16T22:07:10.152Z,97354.09
2023-04-16T22:09:36.962Z,97359.31
2023-04-16T22:12:04.244Z,97354.09
2023-04-16T22:14:30.965Z,97352.22
2023-04-16T22:16:57.916Z,97350.31
2023-04-16T22:19:24.776Z,97358.72
2023-04-16T22:21:51.609Z,97351.16
2023-04-16T22:24:18.392Z,97349.84
2023-04-16T22:26:45.127Z,97344.06
2023-04-16T22:29:12.076Z,97344.88
2023-04-16T22:31:39.012Z,97336.47
2023-04-16T22:34:05.820Z,97329.84
2023-04-16T22:36:32.582Z,97331.75
2023-04-16T22:38:59.365Z,97318.50
2023-04-16T22:41:26.079Z,97320.63
2023-04-16T22:43:52.812Z,97311.66
2023-04-16T22:46:19.653Z,97311.06
2023-04-16T22:48:46.525Z,97310.19
2023-04-16T22:51:13.386Z,97314.13
2023-04-16T22:53:40.110Z,97313.53
2023-04-16T22:56:07.141Z,97306.22
2023-04-16T22:58:33.922Z,97312.47
2023-04-16T23:01:00.648Z,97307.03
2023-04-16T23:03:27.473Z,97304.31
2023-04-16T23:05:54.378Z,97308.94
2023-04-16T23:08:21.222Z,97306.81
2023-04-16T23:10:48.055Z,97313.91
2023-04-16T23:13:14.863Z,97308.94
2023-04-16T23:15:41.708Z,97303.50
2023-04-16T23:18:08.578Z,97302.66
2023-04-16T23:20:35.420Z,97303.72
2023-04-16T23:23:02.143Z,97299.94
2023-04-16T23:25:28.901Z,97306.44
2023-04-16T23:27:55.674Z,97302.03
2023-04-16T23:30:22.763Z,97311.06
2023-04-16T23:32:49.646Z,97302.91
2023-04-16T23:35:16.507Z,97300.19
2023-04-16T23:37:43.301Z,97297.47
2023-04-16T23:40:10.593Z,97294.50
2023-04-16T23:42:37.449Z,97299.31
2023-04-16T23:45:04.522Z,97288.81
2023-04-16T23:47:31.381Z,97284.31
2023-04-16T23:49:58.210Z,97278.00
2023-04-16T23:52:24.974Z,97281.78
2023-04-16T23:54:51.749Z,97285.97
2023-04-16T23:57:20.546Z,97278.00
2023-04-16T23:59:47.407Z,97284.16
